Time;durP1;ratioP1;P1;durP2;ratioP2;P2;SDS_P1;SDS_P2;PMS_P1;PMS_P2;Temp;Humidity;BMP_temperature;BMP_pressure;BME280_temperature;BME280_humidity;BME280_pressure;Samples;Min_cycle;Max_cycle;Signal;HPM_P1;HPM_P2
2022/03/24 04:02:37;;;;;;;22.13;17.27;;;0.50;99.90;;;;;;4915143;29;20235;-81
2022/03/24 04:05:05;;;;;;;18.50;15.77;;;0.50;99.90;;;;;;4918683;29;20554;-81
2022/03/24 04:07:31;;;;;;;19.63;16.77;;;0.50;99.90;;;;;;4932829;29;20187;-79
2022/03/24 04:09:57;;;;;;;21.87;16.07;;;0.50;99.90;;;;;;4920767;29;20214;-79
2022/03/24 04:12:22;;;;;;;21.97;17.30;;;0.50;99.90;;;;;;4939094;29;20203;-81
2022/03/24 04:14:48;;;;;;;20.27;17.03;;;0.50;99.90;;;;;;4920847;29;20643;-81
2022/03/24 04:17:17;;;;;;;21.53;17.37;;;0.50;99.90;;;;;;4922908;29;20199;-82
2022/03/24 04:19:43;;;;;;;20.23;17.13;;;0.50;99.90;;;;;;4924035;29;20312;-81
2022/03/24 04:22:09;;;;;;;18.93;16.80;;;0.50;99.90;;;;;;4922614;29;20644;-81
2022/03/24 04:24:35;;;;;;;23.60;17.63;;;0.50;99.90;;;;;;4921701;29;20680;-81
2022/03/24 04:27:02;;;;;;;22.00;19.77;;;0.60;99.90;;;;;;4920857;29;20191;-80
2022/03/24 04:29:28;;;;;;;22.23;19.90;;;0.60;99.90;;;;;;4921650;29;20191;-82
2022/03/24 04:31:55;;;;;;;21.20;18.40;;;0.60;99.90;;;;;;4942899;29;20236;-82
2022/03/24 04:34:21;;;;;;;20.50;18.27;;;0.60;99.90;;;;;;4926460;29;20191;-81
2022/03/24 04:36:47;;;;;;;21.87;19.53;;;0.50;99.90;;;;;;4940263;29;21227;-81
2022/03/24 04:39:13;;;;;;;28.10;25.50;;;0.40;99.90;;;;;;4927140;29;20218;-81
2022/03/24 04:41:41;;;;;;;25.83;23.30;;;0.40;99.90;;;;;;4941359;29;20213;-81
2022/03/24 04:44:07;;;;;;;23.03;19.17;;;0.40;99.90;;;;;;4925249;29;20186;-81
2022/03/24 04:46:32;;;;;;;29.93;23.80;;;0.40;99.90;;;;;;4942753;29;20179;-81
2022/03/24 04:48:58;;;;;;;21.27;19.17;;;0.30;99.90;;;;;;4930813;29;20435;-82
2022/03/24 04:51:24;;;;;;;23.30;18.80;;;0.30;99.90;;;;;;4929807;29;20234;-81
2022/03/24 04:53:50;;;;;;;21.13;18.93;;;0.30;99.90;;;;;;4926488;29;20783;-81
2022/03/24 04:56:16;;;;;;;23.77;17.93;;;0.30;99.90;;;;;;4925486;29;20187;-82
2022/03/24 04:58:42;;;;;;;22.23;19.70;;;0.30;99.90;;;;;;4927869;29;20608;-79
2022/03/24 05:01:08;;;;;;;20.97;18.30;;;0.30;99.90;;;;;;4933857;29;20222;-81
2022/03/24 05:03:34;;;;;;;28.07;19.83;;;0.30;99.90;;;;;;4930456;29;20270;-81
2022/03/24 05:05:59;;;;;;;21.07;18.63;;;0.30;99.90;;;;;;4926328;29;20182;-81
2022/03/24 05:08:25;;;;;;;24.17;17.50;;;0.30;99.90;;;;;;4923119;29;20190;-82
2022/03/24 05:10:51;;;;;;;22.63;18.90;;;0.20;99.90;;;;;;4925057;29;20207;-81
2022/03/24 05:13:17;;;;;;;21.87;19.00;;;0.20;99.90;;;;;;4933642;29;20194;-82
2022/03/24 05:15:43;;;;;;;22.23;18.33;;;0.10;99.90;;;;;;4924875;29;20194;-81
2022/03/24 05:18:10;;;;;;;27.80;19.03;;;0.10;99.90;;;;;;4938717;29;20664;-82
2022/03/24 05:20:36;;;;;;;21.60;19.03;;;0.10;99.90;;;;;;4932618;29;20592;-73
2022/03/24 05:23:02;;;;;;;21.00;17.97;;;0.10;99.90;;;;;;4916408;29;20242;-73
2022/03/24 05:25:28;;;;;;;21.40;19.20;;;0.00;99.90;;;;;;4912615;29;20191;-74
2022/03/24 05:27:54;;;;;;;20.97;16.93;;;0.00;99.90;;;;;;4913036;29;20201;-73
2022/03/24 05:30:20;;;;;;;23.50;17.27;;;0.00;99.90;;;;;;4913419;29;20203;-73
2022/03/24 05:32:46;;;;;;;62.83;54.40;;;0.00;99.90;;;;;;4911154;29;20222;-69
2022/03/24 05:35:13;;;;;;;21.20;18.57;;;0.00;99.90;;;;;;4910980;29;20197;-68
2022/03/24 05:37:38;;;;;;;21.43;18.73;;;0.10;99.90;;;;;;4907496;29;20202;-69
2022/03/24 05:40:05;;;;;;;21.27;19.00;;;0.20;99.90;;;;;;4915908;29;20215;-69
2022/03/24 05:42:31;;;;;;;21.50;19.20;;;0.30;99.90;;;;;;4914456;29;20226;-69
2022/03/24 05:44:56;;;;;;;24.50;19.00;;;0.40;99.90;;;;;;4916114;29;20175;-74
2022/03/24 05:47:22;;;;;;;23.00;17.40;;;0.50;99.90;;;;;;4914298;29;20682;-74
2022/03/24 05:49:48;;;;;;;21.97;19.63;;;0.60;99.90;;;;;;4915851;29;20191;-74
2022/03/24 05:52:14;;;;;;;23.40;21.00;;;0.70;99.90;;;;;;4916182;29;20218;-75
2022/03/24 05:54:40;;;;;;;21.43;19.17;;;0.90;99.90;;;;;;4913579;29;20223;-74
2022/03/24 05:57:06;;;;;;;20.37;17.77;;;0.90;99.90;;;;;;4898544;29;20274;-73
2022/03/24 05:59:32;;;;;;;21.93;19.73;;;0.90;99.90;;;;;;4896877;29;20230;-73
2022/03/24 06:01:58;;;;;;;30.60;27.80;;;1.00;99.90;;;;;;4921633;29;20218;-74
2022/03/24 06:04:24;;;;;;;31.67;28.87;;;1.00;99.90;;;;;;4915559;29;20183;-74
2022/03/24 06:06:56;;;;;;;30.33;27.73;;;1.10;99.90;;;;;;4914317;29;20327;-74
2022/03/24 06:09:22;;;;;;;21.13;18.03;;;1.20;99.90;;;;;;4915540;29;20714;-74
2022/03/24 06:11:49;;;;;;;23.50;20.10;;;1.30;99.90;;;;;;4915721;29;20314;-74
2022/03/24 06:14:15;;;;;;;26.80;23.97;;;1.40;99.90;;;;;;4913365;29;20667;-74
2022/03/24 06:16:41;;;;;;;22.50;19.13;;;1.40;99.90;;;;;;4914267;29;20250;-73
2022/03/24 06:19:09;;;;;;;20.40;16.57;;;1.50;99.90;;;;;;4913597;29;20215;-75
2022/03/24 06:21:36;;;;;;;20.10;15.93;;;1.60;99.90;;;;;;4913393;29;20590;-74
2022/03/24 06:24:03;;;;;;;21.43;17.00;;;1.80;99.90;;;;;;4930262;29;20183;-74
2022/03/24 06:26:29;;;;;;;29.90;18.90;;;1.90;99.90;;;;;;4916446;29;20640;-72
2022/03/24 06:28:56;;;;;;;23.40;21.00;;;2.10;99.90;;;;;;4914634;29;20183;-74
2022/03/24 06:31:23;;;;;;;21.17;15.73;;;2.30;99.90;;;;;;4915919;29;20553;-74
2022/03/24 06:33:48;;;;;;;28.30;16.20;;;2.40;99.90;;;;;;4915928;29;20188;-74
2022/03/24 06:36:15;;;;;;;25.73;18.70;;;2.50;99.90;;;;;;4935432;29;20197;-76
2022/03/24 06:38:41;;;;;;;30.20;26.40;;;2.70;99.90;;;;;;4921520;29;20217;-75
2022/03/24 06:41:07;;;;;;;32.83;17.27;;;2.90;99.90;;;;;;4915543;29;20207;-77
2022/03/24 06:43:34;;;;;;;27.47;18.80;;;3.10;99.90;;;;;;4915419;29;20202;-75
2022/03/24 06:46:00;;;;;;;24.13;19.43;;;3.40;99.90;;;;;;4920775;29;20182;-75
2022/03/24 06:48:27;;;;;;;24.90;22.20;;;3.80;99.90;;;;;;4952472;29;20678;-75
2022/03/24 06:50:52;;;;;;;24.17;20.60;;;4.70;99.90;;;;;;4951586;28;20671;-74
2022/03/24 06:53:18;;;;;;;25.13;17.33;;;5.50;99.90;;;;;;4950788;29;20187;-76
2022/03/24 06:55:44;;;;;;;27.80;18.50;;;6.30;99.90;;;;;;4916978;29;20187;-75
2022/03/24 06:58:10;;;;;;;20.00;16.80;;;6.90;99.90;;;;;;4915546;29;20269;-74
2022/03/24 07:00:36;;;;;;;23.67;21.33;;;7.40;99.90;;;;;;4915978;29;20317;-73
2022/03/24 07:03:02;;;;;;;24.90;20.53;;;7.80;99.90;;;;;;4914208;29;20194;-75
2022/03/24 07:05:28;;;;;;;19.87;17.80;;;8.10;99.90;;;;;;4914549;29;20175;-74
2022/03/24 07:07:54;;;;;;;16.97;15.17;;;8.40;99.90;;;;;;4914616;29;20187;-74
2022/03/24 07:10:20;;;;;;;17.90;15.77;;;8.50;99.90;;;;;;4913535;29;20269;-74
2022/03/24 07:12:48;;;;;;;20.50;16.93;;;8.20;99.90;;;;;;4914184;29;20766;-75
2022/03/24 07:15:14;;;;;;;19.77;17.53;;;8.30;99.90;;;;;;4913954;29;20191;-74
2022/03/24 07:17:39;;;;;;;20.60;17.57;;;8.20;99.90;;;;;;4913395;29;20191;-74
2022/03/24 07:20:07;;;;;;;18.43;16.23;;;8.10;99.90;;;;;;4914795;29;20218;-74
2022/03/24 07:22:36;;;;;;;20.73;15.63;;;8.40;99.90;;;;;;4914632;29;20225;-74
2022/03/24 07:25:02;;;;;;;16.83;15.07;;;8.40;99.90;;;;;;4929155;29;20238;-74
2022/03/24 07:27:29;;;;;;;25.17;16.63;;;8.70;99.90;;;;;;4929018;29;20191;-74
2022/03/24 07:29:55;;;;;;;17.63;15.77;;;8.80;99.90;;;;;;4913248;29;20632;-74
2022/03/24 07:32:21;;;;;;;19.03;17.00;;;9.10;99.90;;;;;;4919082;29;20222;-74
2022/03/24 07:34:46;;;;;;;19.97;17.83;;;9.70;99.90;;;;;;4914085;29;20211;-74
2022/03/24 07:37:13;;;;;;;32.17;18.77;;;10.20;98.80;;;;;;4912950;29;20194;-74
2022/03/24 07:39:39;;;;;;;22.90;17.43;;;10.60;97.00;;;;;;4929080;29;20215;-78
2022/03/24 07:42:06;;;;;;;19.37;17.07;;;10.80;96.10;;;;;;4914430;29;20211;-73
2022/03/24 07:44:32;;;;;;;22.17;18.50;;;10.70;94.60;;;;;;4912645;29;20195;-73
2022/03/24 07:46:57;;;;;;;22.00;19.70;;;10.60;95.20;;;;;;4911716;29;20281;-74
2022/03/24 07:49:23;;;;;;;21.87;18.83;;;10.30;94.60;;;;;;4913053;29;20279;-74
2022/03/24 07:51:49;;;;;;;22.37;18.60;;;10.40;94.50;;;;;;4912480;29;20210;-74
2022/03/24 07:54:15;;;;;;;24.07;18.27;;;10.40;94.60;;;;;;4913441;29;20241;-73
2022/03/24 07:56:43;;;;;;;20.30;16.90;;;10.70;93.70;;;;;;4914354;29;20183;-73
2022/03/24 07:59:08;;;;;;;23.50;16.20;;;11.10;92.60;;;;;;4928818;29;20206;-74
2022/03/24 08:01:36;;;;;;;18.47;16.23;;;11.50;91.80;;;;;;4913105;29;20226;-75
2022/03/24 08:04:04;;;;;;;17.10;15.30;;;11.50;91.40;;;;;;4912953;29;20537;-74
2022/03/24 08:06:31;;;;;;;21.47;16.07;;;11.80;90.10;;;;;;4913089;29;20183;-75
2022/03/24 08:08:58;;;;;;;20.13;16.43;;;12.00;90.00;;;;;;4913756;29;20655;-74
2022/03/24 08:11:25;;;;;;;19.23;15.73;;;12.60;88.60;;;;;;4915285;29;20241;-74
2022/03/24 08:13:54;;;;;;;19.53;16.10;;;13.20;86.00;;;;;;4917802;29;20195;-74
2022/03/24 08:16:21;;;;;;;20.80;16.03;;;13.60;82.30;;;;;;4926973;29;20229;-74
2022/03/24 08:18:47;;;;;;;18.10;15.03;;;13.90;80.40;;;;;;4932048;29;20237;-75
2022/03/24 08:21:12;;;;;;;20.77;15.87;;;14.20;78.30;;;;;;4916646;29;20682;-74
2022/03/24 08:23:38;;;;;;;21.97;15.63;;;14.30;77.10;;;;;;4916916;29;20206;-74
2022/03/24 08:26:05;;;;;;;20.10;16.67;;;14.60;74.60;;;;;;4918018;29;20179;-75
2022/03/24 08:28:32;;;;;;;23.10;15.87;;;14.70;71.50;;;;;;4916021;29;20184;-75
2022/03/24 08:30:57;;;;;;;20.23;17.07;;;14.20;71.90;;;;;;4915757;29;20243;-75
2022/03/24 08:33:23;;;;;;;20.00;16.27;;;14.10;72.80;;;;;;4917573;29;20183;-75
2022/03/24 08:35:49;;;;;;;22.27;16.50;;;14.10;72.70;;;;;;4917939;29;20191;-75
2022/03/24 08:38:15;;;;;;;22.20;16.40;;;14.20;74.10;;;;;;4918802;29;20194;-74
2022/03/24 08:40:40;;;;;;;18.63;16.37;;;14.60;72.90;;;;;;4917569;29;20213;-75
2022/03/24 08:43:07;;;;;;;19.30;16.03;;;14.90;71.20;;;;;;4917076;29;20306;-75
2022/03/24 08:45:35;;;;;;;24.63;19.07;;;15.40;69.70;;;;;;4916531;29;20187;-75
2022/03/24 08:48:00;;;;;;;25.87;19.80;;;15.50;67.30;;;;;;4916921;29;20194;-74
2022/03/24 08:50:27;;;;;;;22.57;20.23;;;15.60;66.20;;;;;;4931919;29;20611;-75
2022/03/24 08:52:53;;;;;;;25.83;21.93;;;15.60;66.10;;;;;;4916963;29;20183;-75
2022/03/24 08:55:19;;;;;;;26.73;22.50;;;15.90;65.50;;;;;;4930995;29;20558;-75
2022/03/24 08:57:45;;;;;;;25.20;22.53;;;16.10;63.60;;;;;;4916326;29;20559;-75
2022/03/24 09:00:15;;;;;;;24.10;21.27;;;16.20;61.40;;;;;;4914996;29;20223;-74
2022/03/24 09:02:47;;;;;;;26.10;23.07;;;16.20;61.20;;;;;;4914282;29;20187;-75
2022/03/24 09:05:13;;;;;;;23.67;19.80;;;16.40;61.80;;;;;;4916898;29;20567;-75
2022/03/24 09:07:40;;;;;;;22.07;19.67;;;16.80;58.40;;;;;;4915252;29;20186;-75
2022/03/24 09:10:07;;;;;;;22.93;18.83;;;17.00;57.80;;;;;;4915451;29;20197;-75
2022/03/24 09:12:38;;;;;;;23.57;18.90;;;17.10;57.20;;;;;;4916607;29;20203;-75
2022/03/24 09:15:07;;;;;;;22.57;19.90;;;17.20;56.40;;;;;;4915340;29;20187;-75
2022/03/24 09:17:35;;;;;;;23.57;19.40;;;17.40;56.80;;;;;;4916038;29;20187;-74
2022/03/24 09:20:02;;;;;;;27.93;19.30;;;17.70;55.80;;;;;;4915487;29;20775;-74
2022/03/24 09:22:29;;;;;;;21.30;18.03;;;17.90;54.80;;;;;;4915739;29;20210;-74
2022/03/24 09:24:57;;;;;;;22.50;17.47;;;17.80;53.50;;;;;;4915935;29;20187;-73
2022/03/24 09:27:22;;;;;;;23.87;18.37;;;18.00;53.20;;;;;;4916143;29;20188;-74
2022/03/24 09:29:49;;;;;;;27.35;19.17;;;18.40;52.10;;;;;;4916420;29;20187;-73
2022/03/24 09:32:16;;;;;;;22.80;18.07;;;18.40;51.80;;;;;;4929904;29;20219;-74
2022/03/24 09:34:43;;;;;;;24.80;19.37;;;18.70;51.20;;;;;;4915958;29;20574;-74
2022/03/24 09:37:09;;;;;;;26.87;21.10;;;19.10;49.60;;;;;;4916953;29;20219;-74
2022/03/24 09:39:35;;;;;;;25.50;19.08;;;19.40;47.50;;;;;;4920597;29;20210;-74
2022/03/24 09:42:02;;;;;;;25.20;19.40;;;19.50;44.70;;;;;;4919497;29;20207;-74
2022/03/24 09:44:30;;;;;;;22.42;18.30;;;19.70;45.10;;;;;;4918904;29;20187;-74
2022/03/24 09:46:56;;;;;;;23.15;20.33;;;20.10;43.70;;;;;;4934139;29;20678;-73
2022/03/24 09:49:22;;;;;;;25.92;22.17;;;20.80;42.50;;;;;;4920533;29;20195;-74
2022/03/24 09:51:49;;;;;;;27.70;22.05;;;21.20;42.00;;;;;;4915511;29;20207;-74
2022/03/24 09:54:15;;;;;;;26.17;21.88;;;21.60;41.00;;;;;;4915865;29;20190;-74
2022/03/24 09:56:40;;;;;;;26.52;22.23;;;22.00;39.40;;;;;;4916254;29;20186;-74
2022/03/24 09:59:09;;;;;;;22.13;19.77;;;22.20;40.10;;;;;;4916287;29;20211;-74
2022/03/24 10:01:41;;;;;;;20.73;17.70;;;22.30;39.40;;;;;;4916374;29;20747;-73
2022/03/24 10:04:14;;;;;;;20.83;18.63;;;22.40;39.10;;;;;;4916027;29;20326;-74
2022/03/24 10:06:56;;;;;;;23.30;16.75;;;22.90;37.80;;;;;;4915968;29;20294;-74
2022/03/24 10:09:46;;;;;;;21.67;17.33;;;22.80;38.40;;;;;;4915685;29;20194;-74
2022/03/24 10:12:24;;;;;;;21.45;18.52;;;23.20;38.30;;;;;;4915568;29;20552;-73
2022/03/24 10:15:16;;;;;;;25.33;20.55;;;23.00;37.30;;;;;;4914877;29;20183;-76
2022/03/24 10:17:54;;;;;;;27.17;21.92;;;22.80;38.40;;;;;;4930178;29;20198;-76
2022/03/24 10:20:20;;;;;;;24.45;21.95;;;22.70;37.70;;;;;;4916638;29;20222;-75
2022/03/24 10:23:02;;;;;;;26.02;20.88;;;22.40;38.40;;;;;;4912688;29;20321;-75
2022/03/24 10:25:33;;;;;;;25.40;20.63;;;22.40;38.10;;;;;;4914579;29;20191;-75
2022/03/24 10:28:14;;;;;;;21.70;19.48;;;22.60;40.10;;;;;;4914500;29;20187;-76
2022/03/24 10:30:51;;;;;;;19.88;17.52;;;23.00;38.50;;;;;;4915474;29;20203;-76
2022/03/24 10:33:33;;;;;;;22.17;17.77;;;24.30;34.00;;;;;;4915449;29;20331;-76
2022/03/24 10:36:16;;;;;;;21.27;18.52;;;24.40;33.50;;;;;;4914868;29;20198;-75
2022/03/24 10:38:47;;;;;;;19.13;17.10;;;24.50;33.40;;;;;;4914644;29;20227;-75
2022/03/24 10:41:14;;;;;;;20.20;17.23;;;24.40;34.90;;;;;;4909685;29;20218;-76
2022/03/24 10:43:40;;;;;;;24.13;18.13;;;24.50;34.70;;;;;;4912862;29;20183;-74
2022/03/24 10:46:17;;;;;;;20.63;16.95;;;24.70;35.20;;;;;;4914598;29;20194;-76
2022/03/24 10:48:44;;;;;;;19.27;17.38;;;25.00;34.50;;;;;;4914490;29;20191;-76
2022/03/24 10:51:09;;;;;;;19.77;16.38;;;24.70;34.70;;;;;;4929612;29;20707;-75
2022/03/24 10:53:43;;;;;;;20.13;18.02;;;24.80;34.80;;;;;;4914641;29;20195;-75
2022/03/24 10:56:16;;;;;;;21.15;17.70;;;25.50;30.50;;;;;;4914553;29;20195;-75
2022/03/24 10:58:51;;;;;;;20.05;16.90;;;25.40;32.30;;;;;;4914717;29;20436;-74
2022/03/24 11:01:20;;;;;;;19.42;17.38;;;26.20;30.10;;;;;;4915693;29;20297;-75
2022/03/24 11:03:47;;;;;;;21.65;17.25;;;26.10;29.50;;;;;;4914814;29;20195;-76
2022/03/24 11:06:17;;;;;;;20.05;17.77;;;26.10;30.20;;;;;;4914004;29;20183;-74
2022/03/24 11:08:50;;;;;;;18.13;16.20;;;25.60;31.60;;;;;;4913361;29;20183;-75
2022/03/24 11:11:16;;;;;;;23.48;17.95;;;25.70;31.50;;;;;;4914487;29;20214;-75
2022/03/24 11:13:42;;;;;;;19.63;17.33;;;25.50;30.40;;;;;;4914495;29;20559;-75
2022/03/24 11:16:09;;;;;;;20.10;18.10;;;25.40;31.50;;;;;;4928429;29;20198;-74
2022/03/24 11:18:35;;;;;;;19.73;17.65;;;25.30;31.10;;;;;;4914774;29;20230;-75
2022/03/24 11:21:05;;;;;;;22.63;17.60;;;25.70;31.50;;;;;;4929620;29;20199;-75
2022/03/24 11:23:35;;;;;;;21.13;17.35;;;25.90;31.50;;;;;;4914650;29;20261;-76
2022/03/24 11:26:04;;;;;;;18.60;16.60;;;26.50;31.60;;;;;;4914033;29;20234;-75
2022/03/24 11:28:34;;;;;;;20.55;18.27;;;26.50;32.10;;;;;;4914181;29;20690;-75
2022/03/24 11:31:04;;;;;;;24.85;18.55;;;27.10;30.00;;;;;;4912976;29;20199;-75
2022/03/24 11:33:39;;;;;;;23.00;19.63;;;27.40;29.80;;;;;;4914263;29;20179;-75
2022/03/24 11:36:07;;;;;;;21.40;19.15;;;27.40;29.80;;;;;;4926710;29;20723;-74
2022/03/24 11:38:34;;;;;;;21.33;19.10;;;26.90;30.30;;;;;;4927593;29;20187;-75
2022/03/24 11:41:04;;;;;;;22.45;20.08;;;26.90;30.80;;;;;;4914252;29;20679;-74
2022/03/24 11:43:31;;;;;;;25.30;18.38;;;27.20;30.90;;;;;;4915646;29;20702;-74
2022/03/24 11:46:03;;;;;;;21.70;19.45;;;27.40;30.20;;;;;;4930738;29;20559;-74
2022/03/24 11:48:37;;;;;;;21.38;19.00;;;27.00;31.20;;;;;;4919012;29;20175;-73
2022/03/24 11:51:06;;;;;;;22.98;20.50;;;26.40;30.40;;;;;;4918844;29;20202;-74
2022/03/24 11:53:38;;;;;;;21.67;19.48;;;26.50;31.70;;;;;;4919160;29;20244;-74
2022/03/24 11:56:04;;;;;;;23.77;20.70;;;26.60;31.30;;;;;;4917713;29;20682;-74
2022/03/24 11:58:37;;;;;;;20.75;18.58;;;27.20;30.30;;;;;;4917172;29;20187;-75
2022/03/24 12:01:29;;;;;;;20.55;18.08;;;28.10;30.20;;;;;;4917789;29;20242;-74
2022/03/24 12:04:04;;;;;;;22.23;18.75;;;28.50;30.30;;;;;;4914321;29;20191;-74
2022/03/24 12:06:42;;;;;;;22.02;17.52;;;28.30;29.40;;;;;;4918239;29;20179;-75
2022/03/24 12:09:15;;;;;;;22.00;17.38;;;28.00;28.80;;;;;;4917857;29;20206;-74
2022/03/24 12:11:44;;;;;;;23.40;18.40;;;28.20;29.60;;;;;;4932296;29;20207;-73
2022/03/24 12:14:42;;;;;;;22.70;18.70;;;28.60;29.00;;;;;;4917731;29;20598;-74
2022/03/24 12:17:21;;;;;;;24.38;18.83;;;28.30;29.80;;;;;;4916181;29;20195;-74
2022/03/24 12:19:53;;;;;;;21.77;17.52;;;29.00;28.10;;;;;;4917749;29;20655;-75
2022/03/24 12:22:25;;;;;;;21.92;18.25;;;29.00;28.00;;;;;;4914869;29;20234;-75
2022/03/24 12:25:11;;;;;;;18.30;16.33;;;29.20;28.40;;;;;;4915338;29;20197;-73
2022/03/24 12:27:57;;;;;;;22.05;18.15;;;28.50;28.50;;;;;;4917284;29;20282;-76
2022/03/24 12:30:24;;;;;;;20.63;18.05;;;28.70;28.90;;;;;;4917177;29;20674;-75
2022/03/24 12:33:06;;;;;;;20.38;18.20;;;28.60;29.90;;;;;;4916428;29;20610;-75
2022/03/24 12:35:45;;;;;;;21.85;18.88;;;28.10;29.20;;;;;;4916880;29;20801;-75
2022/03/24 12:38:34;;;;;;;22.50;17.90;;;28.60;29.10;;;;;;4916922;29;20274;-74
2022/03/24 12:41:06;;;;;;;24.70;17.88;;;28.60;28.60;;;;;;4918073;29;20206;-75
2022/03/24 12:43:38;;;;;;;24.17;19.17;;;29.00;29.50;;;;;;4917408;29;20197;-75
2022/03/24 12:46:29;;;;;;;23.40;17.85;;;29.00;27.40;;;;;;4917568;29;20278;-75
2022/03/24 12:48:58;;;;;;;19.63;17.00;;;29.20;28.00;;;;;;4931749;29;20566;-76
2022/03/24 12:51:29;;;;;;;19.35;16.08;;;29.10;27.70;;;;;;4917838;29;20215;-75
2022/03/24 12:53:57;;;;;;;18.35;16.45;;;29.60;26.90;;;;;;4917780;29;20562;-75
2022/03/24 12:56:26;;;;;;;23.70;16.83;;;28.90;28.20;;;;;;4917733;29;20198;-75
2022/03/24 12:58:55;;;;;;;20.05;17.25;;;29.10;27.90;;;;;;4914616;29;20218;-75
2022/03/24 13:01:21;;;;;;;19.60;17.60;;;29.90;27.20;;;;;;4915594;29;20817;-74
2022/03/24 13:03:58;;;;;;;20.80;18.70;;;30.00;28.00;;;;;;4915164;29;20206;-74
2022/03/24 13:06:24;;;;;;;21.80;19.50;;;30.20;26.70;;;;;;4915283;29;20222;-75
2022/03/24 13:09:12;;;;;;;18.98;16.98;;;30.10;26.80;;;;;;4916376;29;20566;-75
2022/03/24 13:11:51;;;;;;;19.40;17.50;;;30.40;26.50;;;;;;4916665;29;20211;-75
2022/03/24 13:14:19;;;;;;;17.65;15.85;;;30.80;25.50;;;;;;4916304;29;20218;-76
2022/03/24 13:17:10;;;;;;;18.00;15.88;;;30.40;25.60;;;;;;4916748;29;20249;-76
2022/03/24 13:19:37;;;;;;;17.67;15.32;;;30.70;25.90;;;;;;4915499;29;20863;-76
2022/03/24 13:22:13;;;;;;;16.45;14.82;;;30.70;25.80;;;;;;4917453;29;20302;-76
2022/03/24 13:24:39;;;;;;;17.88;16.08;;;30.90;24.80;;;;;;4932441;29;20183;-76
2022/03/24 13:27:06;;;;;;;19.52;17.52;;;30.60;24.90;;;;;;4930874;29;20711;-76
2022/03/24 13:29:42;;;;;;;16.85;15.10;;;30.40;25.10;;;;;;4916656;29;20215;-76
2022/03/24 13:32:13;;;;;;;17.25;14.07;;;29.90;25.30;;;;;;4916300;29;20253;-76
2022/03/24 13:34:46;;;;;;;15.27;13.68;;;29.90;25.60;;;;;;4915742;29;20187;-70
2022/03/24 13:37:14;;;;;;;16.42;14.65;;;29.00;26.00;;;;;;4912762;29;20463;-70
2022/03/24 13:39:59;;;;;;;18.75;14.23;;;29.80;26.00;;;;;;4914589;29;20217;-70
2022/03/24 13:42:27;;;;;;;17.98;15.00;;;29.80;25.80;;;;;;4914517;29;20241;-70
2022/03/24 13:44:54;;;;;;;16.63;14.93;;;29.70;26.60;;;;;;4914621;29;20488;-70
2022/03/24 13:47:25;;;;;;;15.73;14.23;;;30.00;26.10;;;;;;4912613;29;20195;-70
2022/03/24 13:50:02;;;;;;;16.23;14.63;;;30.00;25.70;;;;;;4913482;29;20187;-70
2022/03/24 13:52:33;;;;;;;17.30;15.70;;;29.40;25.50;;;;;;4914766;29;20213;-68
2022/03/24 13:55:00;;;;;;;16.27;14.57;;;28.60;26.10;;;;;;4916135;29;20556;-75
2022/03/24 13:57:26;;;;;;;15.80;14.13;;;28.50;26.70;;;;;;4913924;29;20183;-75
2022/03/24 13:59:53;;;;;;;17.88;16.02;;;28.00;26.40;;;;;;4915982;29;20630;-75
2022/03/24 14:02:24;;;;;;;17.73;15.38;;;28.30;27.30;;;;;;4915653;29;20226;-75
2022/03/24 14:05:09;;;;;;;21.00;14.65;;;28.20;26.40;;;;;;4914679;29;20190;-75
2022/03/24 14:07:55;;;;;;;21.02;15.52;;;27.40;26.20;;;;;;4915316;29;20179;-76
2022/03/24 14:10:25;;;;;;;18.65;16.80;;;27.80;27.00;;;;;;4916471;29;20226;-76
2022/03/24 14:12:52;;;;;;;18.05;16.17;;;27.80;26.20;;;;;;4915911;29;20187;-76
2022/03/24 14:15:21;;;;;;;16.58;14.88;;;27.80;26.40;;;;;;4915988;29;20179;-75
2022/03/24 14:18:14;;;;;;;18.15;16.20;;;28.10;26.30;;;;;;4914234;29;20218;-75
2022/03/24 14:20:44;;;;;;;16.77;15.07;;;28.90;25.90;;;;;;4914495;29;20226;-75
2022/03/24 14:23:30;;;;;;;15.32;13.90;;;28.70;25.70;;;;;;4930222;29;20274;-75
2022/03/24 14:26:09;;;;;;;16.38;14.88;;;28.30;25.30;;;;;;4915813;29;20338;-75
2022/03/24 14:28:39;;;;;;;16.85;15.07;;;27.90;26.20;;;;;;4915277;29;20269;-75
2022/03/24 14:31:07;;;;;;;16.55;15.05;;;26.90;26.70;;;;;;4915618;29;20215;-76
2022/03/24 14:33:58;;;;;;;17.05;15.25;;;27.30;27.20;;;;;;4914189;29;20213;-76
2022/03/24 14:36:24;;;;;;;16.55;14.85;;;28.10;25.30;;;;;;4914052;29;20190;-76
2022/03/24 14:39:13;;;;;;;15.20;13.05;;;28.50;24.60;;;;;;4913842;29;20436;-74
2022/03/24 14:41:39;;;;;;;13.85;12.45;;;29.30;24.40;;;;;;4914958;29;20215;-75
2022/03/24 14:44:06;;;;;;;16.65;13.82;;;30.10;24.30;;;;;;4929973;29;20179;-75
2022/03/24 14:46:36;;;;;;;14.35;12.95;;;29.80;24.10;;;;;;4930153;29;20199;-77
2022/03/24 14:49:04;;;;;;;16.27;14.35;;;28.90;24.70;;;;;;4916043;29;20187;-75
2022/03/24 14:51:30;;;;;;;15.77;14.00;;;29.00;24.90;;;;;;4915872;29;20211;-76
2022/03/24 14:53:56;;;;;;;16.88;13.00;;;28.00;24.50;;;;;;4916605;29;20221;-76
2022/03/24 14:56:25;;;;;;;18.42;14.73;;;27.90;25.40;;;;;;4920725;29;20805;-75
2022/03/24 14:58:52;;;;;;;18.83;14.60;;;27.30;25.90;;;;;;4930710;29;20215;-76
2022/03/24 15:01:19;;;;;;;17.17;14.48;;;27.40;27.00;;;;;;4913647;29;20583;-75
2022/03/24 15:03:45;;;;;;;18.73;16.73;;;26.80;27.40;;;;;;4915116;29;20262;-75
2022/03/24 15:06:11;;;;;;;15.80;14.30;;;26.50;26.80;;;;;;4914777;29;20262;-75
2022/03/24 15:08:37;;;;;;;20.50;15.77;;;26.40;26.80;;;;;;4912979;29;20211;-75
2022/03/24 15:11:05;;;;;;;16.25;13.73;;;26.40;26.40;;;;;;4914756;29;20198;-76
2022/03/24 15:13:31;;;;;;;16.40;13.77;;;26.30;27.50;;;;;;4913702;29;20220;-75
2022/03/24 15:16:03;;;;;;;18.63;14.20;;;25.20;26.80;;;;;;4914464;29;20729;-75
2022/03/24 15:18:33;;;;;;;16.52;13.52;;;24.90;27.00;;;;;;4910074;29;20194;-76
2022/03/24 15:21:00;;;;;;;14.52;12.80;;;24.80;27.30;;;;;;4895788;29;20251;-76
2022/03/24 15:23:26;;;;;;;15.23;13.55;;;24.50;27.60;;;;;;4912655;29;20180;-75
2022/03/24 15:25:52;;;;;;;16.58;13.45;;;24.60;28.20;;;;;;4905579;29;20577;-74
2022/03/24 15:28:19;;;;;;;16.15;13.63;;;25.60;27.30;;;;;;4915812;29;20186;-76
2022/03/24 15:30:45;;;;;;;17.45;14.02;;;25.60;27.30;;;;;;4918261;29;20209;-75
2022/03/24 15:33:12;;;;;;;15.20;12.80;;;25.30;27.70;;;;;;4918903;29;20183;-76
2022/03/24 15:35:38;;;;;;;17.40;11.80;;;25.10;27.30;;;;;;4916173;29;20284;-76
2022/03/24 15:38:05;;;;;;;13.73;11.32;;;24.90;27.60;;;;;;4913407;29;20182;-75
2022/03/24 15:40:32;;;;;;;13.13;11.80;;;25.30;26.90;;;;;;4929601;29;20209;-75
2022/03/24 15:42:58;;;;;;;15.13;12.57;;;26.00;26.60;;;;;;4914988;29;20183;-76
2022/03/24 15:45:24;;;;;;;15.27;12.52;;;27.20;25.30;;;;;;4915015;29;20182;-75
2022/03/24 15:47:50;;;;;;;14.27;12.77;;;28.10;25.50;;;;;;4898679;29;20220;-75
2022/03/24 15:50:17;;;;;;;14.23;12.80;;;28.50;24.30;;;;;;4929230;29;20321;-76
2022/03/24 15:52:45;;;;;;;15.77;13.35;;;29.10;22.90;;;;;;4928905;29;20199;-76
2022/03/24 15:55:12;;;;;;;16.20;14.25;;;28.90;22.90;;;;;;4913328;29;20187;-75
2022/03/24 15:57:39;;;;;;;15.15;13.35;;;29.50;22.80;;;;;;4914253;29;20553;-74
2022/03/24 16:00:09;;;;;;;14.10;12.25;;;29.30;22.40;;;;;;4913317;29;20217;-76
2022/03/24 16:02:36;;;;;;;12.77;11.48;;;29.20;23.30;;;;;;4914233;29;20211;-75
2022/03/24 16:05:02;;;;;;;14.18;12.68;;;28.50;23.50;;;;;;4914532;29;20317;-75
2022/03/24 16:07:28;;;;;;;12.57;11.48;;;27.90;23.70;;;;;;4913890;29;20187;-73
2022/03/24 16:09:54;;;;;;;20.65;16.70;;;27.60;24.50;;;;;;4912735;29;20726;-73
2022/03/24 16:12:19;;;;;;;17.75;15.85;;;27.60;24.50;;;;;;4918521;29;20246;-76
2022/03/24 16:14:45;;;;;;;18.98;14.32;;;27.30;24.40;;;;;;4978201;23;20668;-75
2022/03/24 16:17:11;;;;;;;19.20;15.88;;;26.80;26.50;;;;;;4951929;28;20273;-74
2022/03/24 16:19:37;;;;;;;18.60;16.70;;;26.50;26.90;;;;;;4951912;28;20822;-75
2022/03/24 16:22:03;;;;;;;23.75;17.83;;;26.20;27.60;;;;;;4952044;28;20240;-73
2022/03/24 16:24:29;;;;;;;21.38;17.27;;;25.70;27.30;;;;;;4967747;28;20674;-74
2022/03/24 16:26:56;;;;;;;20.70;17.30;;;25.40;27.70;;;;;;4967158;28;20269;-74
2022/03/24 16:29:22;;;;;;;17.42;15.65;;;24.70;27.70;;;;;;4967260;28;20209;-75
2022/03/24 16:31:47;;;;;;;18.08;13.75;;;23.70;29.00;;;;;;4943630;28;20214;-74
2022/03/24 16:34:13;;;;;;;20.25;16.48;;;23.00;30.00;;;;;;4950919;28;20214;-74
2022/03/24 16:36:39;;;;;;;21.83;16.10;;;22.60;31.00;;;;;;4937093;28;20739;-74
2022/03/24 16:39:05;;;;;;;29.75;16.02;;;22.70;30.90;;;;;;4936148;28;20251;-74
2022/03/24 16:41:31;;;;;;;18.88;16.98;;;22.80;30.10;;;;;;4942042;29;20182;-74